createdAt,value
2022-07-29T00:00:52.450Z,99.99
2022-07-29T00:01:52.715Z,99.99
2022-07-29T00:02:53.040Z,99.99
2022-07-29T00:03:53.400Z,99.99
2022-07-29T00:04:53.446Z,99.99
2022-07-29T00:05:53.804Z,99.99
2022-07-29T00:06:54.033Z,99.99
2022-07-29T00:07:56.206Z,99.99
2022-07-29T00:08:54.528Z,99.99
2022-07-29T00:09:54.757Z,99.99
2022-07-29T00:10:55.029Z,99.99
2022-07-29T00:11:55.267Z,99.99
2022-07-29T00:12:55.506Z,99.99
2022-07-29T00:13:55.740Z,99.99
2022-07-29T00:14:56.018Z,99.99
2022-07-29T00:15:56.286Z,99.99
2022-07-29T00:16:56.548Z,99.99
2022-07-29T00:17:56.807Z,99.99
2022-07-29T00:18:59.531Z,99.99
2022-07-29T00:19:58.397Z,99.99
2022-07-29T00:20:57.695Z,99.99
2022-07-29T00:21:57.951Z,99.99
2022-07-29T00:22:58.185Z,99.99
2022-07-29T00:23:58.417Z,99.99
2022-07-29T00:24:59.427Z,99.99
2022-07-29T00:25:58.948Z,99.99
2022-07-29T00:26:59.217Z,99.99
2022-07-29T00:27:59.464Z,99.99
2022-07-29T00:29:31.166Z,99.99
2022-07-29T00:30:00.921Z,99.99
2022-07-29T00:31:01.360Z,99.99
2022-07-29T00:32:00.554Z,99.99
2022-07-29T00:33:00.720Z,99.99
2022-07-29T00:34:00.948Z,99.99
2022-07-29T00:35:01.192Z,99.99
2022-07-29T00:36:01.420Z,99.99
2022-07-29T00:37:01.700Z,99.99
2022-07-29T00:38:02.156Z,99.99
2022-07-29T00:39:02.214Z,99.99
2022-07-29T00:40:02.443Z,99.99
2022-07-29T00:41:02.682Z,99.99
2022-07-29T00:42:02.955Z,99.99
2022-07-29T00:43:03.203Z,99.99
2022-07-29T00:44:03.436Z,99.99
2022-07-29T00:45:03.693Z,99.99
2022-07-29T00:46:03.951Z,99.99
2022-07-29T00:47:04.296Z,99.99
2022-07-29T00:48:08.250Z,99.99
2022-07-29T00:49:04.758Z,99.99
2022-07-29T00:50:04.874Z,99.99
2022-07-29T00:51:05.113Z,99.99
2022-07-29T00:52:05.440Z,99.99
2022-07-29T00:53:05.699Z,99.99
2022-07-29T02:56:48.135Z,99.99
2022-07-29T02:57:55.034Z,99.99
2022-07-29T02:58:49.615Z,99.99
2022-07-29T02:59:48.935Z,99.99
2022-07-29T03:00:49.233Z,99.99
2022-07-29T03:01:49.527Z,99.99
2022-07-29T03:02:49.832Z,99.99
2022-07-29T03:03:50.069Z,99.99
2022-07-29T03:04:50.428Z,99.99
2022-07-29T03:05:50.643Z,99.99
2022-07-29T03:06:50.866Z,99.99
2022-07-29T03:07:51.208Z,99.99
2022-07-29T03:08:51.442Z,99.99
2022-07-29T03:09:51.774Z,99.99
2022-07-29T03:10:52.031Z,99.99
2022-07-29T03:11:52.246Z,99.99
2022-07-29T03:12:52.586Z,99.99
2022-07-29T03:13:52.959Z,99.99
2022-07-29T03:14:53.182Z,99.99
2022-07-29T03:15:53.443Z,99.99
2022-07-29T03:16:53.703Z,99.99
2022-07-29T03:17:54.016Z,99.99
2022-07-29T03:18:54.356Z,99.99
2022-07-29T03:19:54.574Z,99.99
2022-07-29T03:20:54.925Z,99.38
2022-07-29T03:21:55.201Z,99.08
2022-07-29T03:22:55.414Z,97.97
2022-07-29T03:23:55.744Z,97.47
2022-07-29T03:24:56.078Z,97.27
2022-07-29T03:25:56.410Z,97.87
2022-07-29T03:26:56.770Z,97.87
2022-07-29T03:27:56.978Z,98.07
2022-07-29T03:28:57.339Z,98.68
2022-07-29T03:29:57.554Z,97.77
2022-07-29T03:30:57.890Z,98.88
2022-07-29T03:31:58.116Z,99.68
2022-07-29T03:32:58.829Z,99.58
2022-07-29T03:33:58.673Z,99.88
2022-07-29T03:34:58.886Z,99.79
2022-07-29T03:35:59.241Z,99.73
2022-07-29T03:36:59.457Z,99.84
2022-07-29T03:37:59.827Z,99.99
2022-07-29T03:39:00.042Z,99.99
2022-07-29T03:40:00.259Z,99.99
2022-07-29T03:41:00.591Z,99.99
2022-07-29T03:42:00.926Z,99.99
2022-07-29T03:43:01.296Z,99.99
2022-07-29T03:44:01.507Z,99.99
2022-07-29T03:45:01.844Z,99.99
2022-07-29T03:46:02.217Z,99.99
2022-07-29T03:47:02.438Z,99.99
2022-07-29T03:48:02.839Z,99.99
2022-07-29T03:49:03.155Z,99.99
2022-07-29T03:50:03.269Z,99.18
2022-07-29T03:51:03.601Z,98.37
2022-07-29T03:52:03.926Z,98.58
2022-07-29T03:53:04.273Z,99.58
2022-07-29T03:54:13.864Z,99.08
2022-07-29T03:55:05.835Z,99.79
2022-07-29T03:56:05.114Z,99.99
2022-07-29T03:57:05.450Z,99.99
2022-07-29T03:58:05.704Z,99.99
2022-07-29T03:59:05.898Z,99.99
2022-07-29T04:00:06.209Z,99.99
2022-07-29T04:01:06.543Z,99.99
2022-07-29T04:02:06.824Z,99.99
2022-07-29T04:03:10.720Z,99.99
2022-07-29T04:04:07.266Z,99.99
2022-07-29T04:05:07.479Z,99.99
2022-07-29T04:06:07.844Z,99.99
2022-07-29T04:07:08.061Z,99.99
2022-07-29T04:08:08.314Z,99.99
2022-07-29T04:09:09.862Z,99.99
2022-07-29T04:10:08.876Z,99.99
2022-07-29T04:11:09.144Z,99.99
2022-07-29T04:12:09.347Z,99.99
2022-07-29T04:13:09.657Z,99.99
2022-07-29T04:14:09.939Z,99.99
2022-07-29T04:15:13.983Z,99.99
2022-07-29T04:16:10.407Z,99.99
2022-07-29T04:17:11.415Z,99.99
2022-07-29T04:18:10.917Z,99.94
2022-07-29T04:19:11.277Z,99.99
2022-07-29T04:20:11.489Z,99.99
2022-07-29T04:21:15.698Z,99.99
2022-07-29T04:22:12.081Z,99.99
2022-07-29T04:23:16.145Z,99.74
2022-07-29T04:24:14.883Z,98.93
2022-07-29T04:25:12.991Z,98.53
2022-07-29T04:26:13.200Z,98.22
2022-07-29T04:27:13.528Z,98.73
2022-07-29T04:28:13.857Z,98.08
2022-07-29T04:29:14.114Z,97.78
2022-07-29T04:30:14.370Z,98.58
2022-07-29T04:31:14.633Z,98.79
2022-07-29T04:32:14.861Z,98.68
2022-07-29T04:33:18.904Z,98.68
2022-07-29T04:34:17.505Z,99.79
2022-07-29T04:35:15.690Z,99.99
2022-07-29T04:36:28.520Z,99.99
2022-07-29T04:37:17.215Z,99.84
2022-07-29T04:38:17.278Z,99.99
2022-07-29T04:39:22.182Z,99.99
2022-07-29T04:40:18.049Z,99.99
2022-07-29T04:41:17.353Z,99.99
2022-07-29T04:42:17.644Z,99.99
2022-07-29T04:43:22.583Z,99.99
2022-07-29T04:44:18.791Z,99.99
2022-07-29T04:45:22.604Z,99.99
2022-07-29T04:46:18.918Z,99.99
2022-07-29T04:47:19.172Z,99.99
2022-07-29T04:48:19.500Z,99.99
2022-07-29T04:49:19.847Z,99.99
2022-07-29T04:50:20.103Z,99.99
2022-07-29T04:51:20.326Z,99.99
2022-07-29T04:52:21.581Z,99.99
2022-07-29T04:53:24.801Z,99.99
2022-07-29T04:54:21.307Z,99.99
2022-07-29T04:55:21.675Z,99.99
2022-07-29T04:56:21.940Z,99.99
2022-07-29T04:57:26.013Z,99.99
2022-07-29T04:58:22.390Z,99.59
2022-07-29T04:59:22.721Z,99.99
2022-07-29T05:00:23.038Z,99.99
2022-07-29T05:01:24.445Z,99.99
2022-07-29T05:02:23.720Z,99.99
2022-07-29T05:03:23.847Z,99.99
2022-07-29T05:04:24.185Z,99.99
2022-07-29T05:05:24.505Z,99.99
2022-07-29T05:06:24.810Z,99.99
2022-07-29T05:07:25.178Z,99.99
2022-07-29T05:08:25.393Z,99.99
2022-07-29T05:09:25.714Z,99.99
2022-07-29T05:10:26.029Z,99.99
2022-07-29T05:11:30.250Z,99.99
2022-07-29T05:12:30.520Z,99.99
2022-07-29T05:13:27.639Z,99.99
2022-07-29T05:14:28.155Z,99.99
2022-07-29T05:15:27.461Z,99.59
2022-07-29T05:16:27.757Z,99.29
2022-07-29T05:17:31.792Z,99.95
2022-07-29T05:18:32.126Z,99.44
2022-07-29T05:19:32.819Z,99.54
2022-07-29T05:20:28.943Z,98.64
2022-07-29T05:21:33.117Z,98.13
2022-07-29T05:22:29.611Z,99.04
2022-07-29T05:23:29.937Z,99.24
2022-07-29T05:24:34.087Z,99.54
2022-07-29T05:25:43.521Z,99.34
2022-07-29T05:26:31.936Z,99.85
2022-07-29T05:27:31.201Z,99.99
2022-07-29T05:28:31.513Z,99.99
2022-07-29T05:29:44.241Z,99.99
2022-07-29T05:30:33.220Z,99.99
2022-07-29T05:31:34.295Z,99.99
2022-07-29T05:32:34.497Z,99.74
2022-07-29T05:33:34.867Z,99.24
2022-07-29T05:34:33.381Z,99.99
2022-07-29T05:35:33.694Z,99.99
2022-07-29T05:36:34.048Z,99.99
2022-07-29T05:37:34.255Z,99.99
2022-07-29T05:38:34.596Z,99.99
2022-07-29T05:39:47.118Z,99.99
2022-07-29T05:40:36.156Z,99.99
2022-07-29T05:41:35.441Z,99.99
2022-07-29T05:42:35.748Z,99.99
2022-07-29T05:43:36.072Z,99.99
2022-07-29T05:44:36.441Z,99.99
2022-07-29T05:45:49.673Z,99.99
2022-07-29T05:46:38.110Z,99.99
2022-07-29T05:47:37.286Z,99.99
2022-07-29T05:48:37.705Z,99.99
2022-07-29T05:49:38.095Z,99.99
2022-07-29T05:50:38.308Z,99.99
2022-07-29T05:51:39.534Z,99.99
2022-07-29T05:52:38.774Z,99.99
2022-07-29T05:53:39.109Z,99.99
2022-07-29T05:54:39.315Z,99.99
2022-07-29T05:55:39.629Z,99.99
2022-07-29T05:56:39.958Z,99.90
2022-07-29T05:57:40.187Z,99.99
2022-07-29T05:58:40.591Z,99.34
2022-07-29T05:59:40.802Z,99.50
2022-07-29T06:00:41.130Z,99.99
2022-07-29T06:01:41.436Z,99.99
2022-07-29T06:02:41.583Z,99.99
2022-07-29T06:03:42.760Z,99.99
2022-07-29T06:04:42.173Z,99.99
2022-07-29T06:05:42.403Z,99.40
2022-07-29T06:06:42.732Z,98.59
2022-07-29T06:07:50.844Z,98.59
2022-07-29T06:08:44.423Z,98.90
2022-07-29T06:09:43.668Z,97.78
2022-07-29T06:10:44.105Z,96.88
2022-07-29T06:11:44.314Z,96.48
2022-07-29T06:12:44.645Z,97.78
2022-07-29T06:13:44.872Z,98.09
2022-07-29T06:14:45.195Z,98.59
2022-07-29T06:15:49.410Z,99.30
2022-07-29T06:16:45.872Z,99.50
2022-07-29T06:18:00.790Z,99.40
2022-07-29T06:18:47.358Z,98.99
2022-07-29T06:19:46.620Z,97.99
2022-07-29T06:20:47.032Z,97.89
2022-07-29T06:21:47.346Z,97.69
2022-07-29T06:22:47.575Z,98.19
2022-07-29T06:23:47.778Z,98.19
2022-07-29T06:24:48.134Z,98.19
2022-07-29T06:25:48.344Z,98.19
2022-07-29T06:26:48.675Z,99.35
2022-07-29T06:27:48.992Z,99.75
2022-07-29T06:28:49.306Z,99.65
2022-07-29T06:29:49.610Z,99.55
2022-07-29T06:30:49.832Z,97.84
2022-07-29T06:31:50.070Z,96.63
2022-07-29T06:32:50.401Z,96.83
2022-07-29T06:33:50.608Z,97.13
2022-07-29T06:34:50.939Z,97.53
2022-07-29T06:35:53.541Z,97.69
2022-07-29T06:36:51.537Z,98.70
2022-07-29T06:37:51.801Z,98.90
2022-07-29T06:38:52.236Z,96.98
2022-07-29T06:39:55.565Z,96.59
2022-07-29T06:40:53.600Z,96.69
2022-07-29T06:41:52.874Z,96.08
2022-07-29T06:42:53.365Z,95.68
2022-07-29T06:43:54.494Z,95.78
2022-07-29T06:44:53.730Z,96.98
2022-07-29T06:45:54.050Z,96.39
2022-07-29T06:46:54.407Z,97.39
2022-07-29T06:47:54.589Z,96.59
2022-07-29T06:48:54.942Z,96.14
2022-07-29T06:49:55.167Z,98.25
2022-07-29T06:51:16.487Z,97.44
2022-07-29T06:51:56.756Z,96.54
2022-07-29T06:52:56.004Z,97.95
2022-07-29T06:53:59.418Z,97.55
2022-07-29T06:54:57.613Z,95.43
2022-07-29T06:55:56.852Z,95.23
2022-07-29T06:57:00.973Z,95.13
2022-07-29T06:57:57.473Z,96.80
2022-07-29T06:58:59.647Z,97.80
2022-07-29T06:59:58.097Z,96.59
2022-07-29T07:00:58.498Z,95.39
2022-07-29T07:01:58.765Z,95.39
2022-07-29T07:02:58.990Z,94.64
2022-07-29T07:03:59.336Z,94.24
2022-07-29T07:04:59.538Z,94.44
2022-07-29T07:05:59.827Z,94.09
2022-07-29T07:07:00.088Z,93.49
2022-07-29T07:08:00.420Z,96.41
2022-07-29T07:09:00.777Z,93.89
2022-07-29T07:10:00.981Z,93.39
2022-07-29T07:11:01.294Z,93.49
2022-07-29T07:12:01.664Z,93.59
2022-07-29T07:13:01.866Z,94.09
2022-07-29T07:14:03.724Z,95.75
2022-07-29T07:15:02.455Z,96.96
2022-07-29T07:16:02.762Z,95.05
2022-07-29T07:17:06.954Z,93.95
2022-07-29T07:18:03.385Z,93.95
2022-07-29T07:19:05.524Z,92.84
2022-07-29T07:20:03.976Z,92.84
2022-07-29T07:21:05.042Z,92.60
2022-07-29T07:22:04.416Z,95.01
2022-07-29T07:23:04.647Z,95.71
2022-07-29T07:24:04.943Z,93.40
2022-07-29T07:25:05.233Z,94.10
2022-07-29T07:26:07.700Z,92.90
2022-07-29T07:27:05.901Z,94.40
2022-07-29T07:28:06.194Z,93.66
2022-07-29T07:29:06.502Z,92.66
2022-07-29T07:30:06.800Z,92.05
2022-07-29T07:31:07.150Z,91.96
2022-07-29T07:32:07.376Z,91.55
2022-07-29T07:33:07.560Z,91.39
2022-07-29T07:34:07.879Z,91.75
2022-07-29T07:35:08.188Z,90.95
2022-07-29T07:36:08.512Z,90.55
2022-07-29T07:37:08.851Z,90.59
2022-07-29T07:38:09.154Z,91.45
2022-07-29T07:39:09.463Z,93.16
2022-07-29T07:40:09.776Z,94.06
2022-07-29T07:41:10.126Z,91.65
2022-07-29T07:42:10.317Z,93.86
2022-07-29T07:43:10.619Z,93.46
2022-07-29T07:44:15.875Z,93.16
2022-07-29T07:45:13.916Z,91.75
2022-07-29T07:46:11.625Z,92.31
2022-07-29T07:47:16.045Z,89.90
2022-07-29T07:48:12.196Z,91.41
2022-07-29T07:49:12.515Z,91.20
2022-07-29T07:50:16.544Z,92.31
2022-07-29T07:51:13.943Z,93.31
2022-07-29T07:52:13.230Z,91.31
2022-07-29T07:53:13.446Z,94.82
2022-07-29T07:54:14.072Z,93.71
2022-07-29T07:55:14.048Z,94.62
2022-07-29T07:56:14.384Z,94.21
2022-07-29T07:57:18.421Z,92.61
2022-07-29T07:58:14.918Z,92.21
2022-07-29T07:59:15.228Z,92.91
2022-07-29T08:00:15.517Z,92.41
2022-07-29T08:01:15.973Z,89.90
2022-07-29T08:02:16.242Z,89.11
2022-07-29T08:03:17.153Z,91.61
2022-07-29T08:04:25.128Z,91.16
2022-07-29T08:05:18.070Z,90.26
2022-07-29T08:06:17.203Z,89.06
2022-07-29T08:07:17.384Z,88.30
2022-07-29T08:08:17.668Z,87.30
2022-07-29T08:09:28.857Z,89.81
2022-07-29T08:10:23.122Z,90.36
2022-07-29T08:11:18.523Z,90.06
2022-07-29T08:12:18.891Z,90.16
2022-07-29T08:13:19.054Z,90.46
2022-07-29T08:14:19.551Z,90.66
2022-07-29T08:15:19.620Z,90.56
2022-07-29T08:16:19.953Z,86.60
2022-07-29T08:17:20.119Z,89.16
2022-07-29T08:18:20.406Z,89.26
2022-07-29T08:19:20.699Z,88.56
2022-07-29T08:20:20.993Z,90.16
2022-07-29T08:21:21.329Z,90.06
2022-07-29T08:22:21.630Z,89.16
2022-07-29T08:23:22.126Z,88.26
2022-07-29T08:24:22.222Z,87.86
2022-07-29T08:25:22.521Z,85.05
2022-07-29T08:26:22.864Z,82.55
2022-07-29T08:27:42.344Z,83.75
2022-07-29T08:28:25.947Z,81.95
2022-07-29T08:29:27.530Z,83.35
2022-07-29T08:30:24.019Z,84.21
2022-07-29T08:31:24.398Z,82.91
2022-07-29T08:32:50.894Z,83.41
2022-07-29T08:33:25.948Z,85.41
2022-07-29T08:34:27.804Z,86.21
2022-07-29T08:35:25.503Z,86.71
2022-07-29T08:36:25.802Z,87.62
2022-07-29T08:37:26.104Z,87.48
2022-07-29T08:38:26.412Z,87.07
2022-07-29T08:39:26.755Z,87.07
2022-07-29T08:40:32.319Z,87.57
2022-07-29T08:41:28.264Z,81.67
2022-07-29T08:42:27.501Z,81.97
2022-07-29T08:43:27.779Z,80.67
2022-07-29T08:44:30.857Z,82.21
2022-07-29T08:45:28.421Z,85.31
2022-07-29T08:46:30.355Z,84.21
2022-07-29T08:47:28.862Z,86.11
2022-07-29T08:48:29.156Z,81.41
2022-07-29T08:49:29.504Z,83.51
2022-07-29T08:50:31.638Z,85.82
2022-07-29T08:51:30.041Z,86.32
2022-07-29T08:52:32.190Z,86.91
2022-07-29T08:53:30.585Z,87.02
2022-07-29T08:54:30.896Z,86.91
2022-07-29T08:55:31.230Z,87.32
2022-07-29T08:56:31.538Z,87.66
2022-07-29T08:57:31.815Z,85.55
2022-07-29T08:58:36.526Z,84.05
2022-07-29T08:59:32.323Z,85.05
2022-07-29T09:00:32.638Z,82.45
2022-07-29T09:01:36.367Z,82.55
2022-07-29T09:02:34.233Z,83.65
2022-07-29T09:03:37.459Z,82.24
2022-07-29T09:04:33.782Z,82.55
2022-07-29T09:05:39.486Z,84.85
2022-07-29T09:06:35.373Z,82.35
2022-07-29T09:07:34.942Z,82.75
2022-07-29T09:08:34.937Z,81.95
2022-07-29T09:09:35.219Z,82.85
2022-07-29T09:10:35.543Z,84.85
2022-07-29T09:11:35.852Z,85.55
2022-07-29T09:12:38.125Z,84.15
2022-07-29T09:13:36.941Z,86.96
2022-07-29T09:14:36.654Z,84.15
2022-07-29T09:15:36.953Z,84.49
2022-07-29T09:16:52.311Z,86.16
2022-07-29T09:17:38.596Z,84.49
2022-07-29T09:18:37.904Z,86.19
2022-07-29T09:19:38.991Z,85.89
2022-07-29T09:20:39.462Z,84.89
2022-07-29T09:21:38.711Z,86.35
2022-07-29T09:22:42.055Z,87.66
2022-07-29T09:23:39.333Z,85.46
2022-07-29T09:24:39.682Z,85.99
2022-07-29T09:25:39.865Z,85.89
2022-07-29T09:26:40.163Z,84.29
2022-07-29T09:27:40.484Z,83.99
2022-07-29T09:28:40.771Z,86.80
2022-07-29T09:29:41.065Z,87.00
2022-07-29T09:30:41.403Z,86.19
2022-07-29T09:31:41.639Z,86.80
2022-07-29T09:32:41.865Z,87.20
2022-07-29T09:33:42.093Z,87.50
2022-07-29T09:34:42.409Z,88.60
2022-07-29T09:35:42.765Z,87.60
2022-07-29T09:36:44.056Z,87.40
2022-07-29T09:37:43.292Z,89.00
2022-07-29T09:38:43.587Z,87.66
2022-07-29T09:39:43.894Z,87.00
2022-07-29T09:40:44.232Z,88.40
2022-07-29T09:41:44.415Z,85.19
2022-07-29T09:42:44.709Z,85.69
2022-07-29T09:43:44.997Z,84.69
2022-07-29T09:44:45.286Z,85.13
2022-07-29T09:45:45.629Z,85.83
2022-07-29T09:46:49.786Z,86.33
2022-07-29T09:47:46.196Z,86.84
2022-07-29T09:48:46.449Z,86.94
2022-07-29T09:49:46.664Z,88.34
2022-07-29T09:50:46.961Z,88.95
2022-07-29T09:51:47.291Z,90.55
2022-07-29T09:52:47.639Z,90.95
2022-07-29T09:53:47.838Z,90.65
2022-07-29T09:54:48.237Z,91.45
2022-07-29T09:55:48.445Z,90.45
2022-07-29T09:56:48.768Z,90.19
2022-07-29T09:57:49.847Z,88.39
2022-07-29T09:58:49.355Z,89.79
2022-07-29T09:59:50.221Z,92.10
2022-07-29T10:00:49.953Z,92.70
2022-07-29T10:01:50.160Z,93.30
2022-07-29T10:02:54.300Z,93.30
2022-07-29T10:03:50.707Z,92.90
2022-07-29T10:04:50.950Z,92.40
2022-07-29T10:05:51.269Z,92.90
2022-07-29T10:06:51.577Z,93.40
2022-07-29T10:07:54.128Z,94.90
2022-07-29T10:08:52.159Z,93.40
2022-07-29T10:09:52.474Z,94.51
2022-07-29T10:10:52.771Z,95.31
2022-07-29T10:11:53.065Z,95.31
2022-07-29T10:12:53.394Z,95.71
2022-07-29T10:13:53.708Z,95.41
2022-07-29T10:14:54.011Z,95.26
2022-07-29T10:15:54.333Z,94.96
2022-07-29T10:16:58.459Z,94.76
2022-07-29T10:17:54.815Z,95.06
2022-07-29T10:18:56.954Z,94.86
2022-07-29T10:19:55.368Z,95.47
2022-07-29T10:20:55.822Z,97.82
2022-07-29T10:21:58.140Z,96.62
2022-07-29T10:22:56.210Z,96.12
2022-07-29T10:23:56.510Z,96.02
2022-07-29T10:24:56.780Z,94.51
2022-07-29T10:26:00.878Z,93.41
2022-07-29T10:26:57.361Z,92.81
2022-07-29T10:27:59.464Z,92.67
2022-07-29T10:28:59.747Z,88.16
2022-07-29T10:30:02.133Z,90.06
2022-07-29T10:30:58.683Z,84.45
2022-07-29T10:31:59.292Z,86.46
2022-07-29T10:32:59.209Z,86.66
2022-07-29T10:33:59.511Z,87.46
2022-07-29T10:34:59.755Z,87.26
2022-07-29T10:36:00.094Z,88.16
2022-07-29T10:37:00.278Z,85.05
2022-07-29T10:38:00.530Z,87.16
2022-07-29T10:39:00.870Z,83.79
2022-07-29T10:40:01.189Z,87.96
2022-07-29T10:41:02.103Z,89.46
2022-07-29T10:42:01.648Z,87.16
2022-07-29T10:43:01.985Z,89.16
2022-07-29T10:44:02.302Z,89.46
2022-07-29T10:45:02.686Z,89.96
2022-07-29T10:46:02.847Z,90.12
2022-07-29T10:47:03.198Z,89.96
2022-07-29T10:48:03.390Z,90.12
2022-07-29T10:49:03.814Z,89.56
2022-07-29T10:50:04.007Z,86.46
2022-07-29T10:51:04.313Z,88.36
2022-07-29T10:52:05.769Z,83.35
2022-07-29T10:53:05.006Z,84.65
2022-07-29T10:54:05.219Z,83.55
2022-07-29T10:55:07.376Z,83.65
2022-07-29T10:56:06.503Z,87.05
2022-07-29T10:57:06.152Z,85.46
2022-07-29T10:58:06.466Z,87.16
2022-07-29T10:59:06.739Z,87.86
2022-07-29T11:00:07.033Z,87.66
2022-07-29T11:01:07.336Z,88.46
2022-07-29T11:02:35.328Z,88.96
2022-07-29T11:03:10.826Z,87.66
2022-07-29T11:04:08.233Z,87.46
2022-07-29T11:05:08.466Z,87.26
2022-07-29T11:06:12.639Z,88.56
2022-07-29T11:07:08.993Z,89.16
2022-07-29T11:08:11.548Z,89.26
2022-07-29T11:09:10.551Z,90.46
2022-07-29T11:10:09.802Z,88.46
2022-07-29T11:11:15.790Z,89.66
2022-07-29T11:12:10.464Z,89.86
2022-07-29T11:13:10.798Z,90.86
2022-07-29T11:14:11.057Z,90.77
2022-07-29T11:15:11.390Z,88.06
2022-07-29T11:16:11.653Z,88.26
2022-07-29T11:17:14.039Z,89.16
2022-07-29T11:18:15.055Z,89.66
2022-07-29T11:19:16.147Z,89.06
2022-07-29T11:20:13.633Z,89.46
2022-07-29T11:21:12.949Z,89.46
2022-07-29T11:22:16.510Z,89.16
2022-07-29T11:23:13.542Z,90.66
2022-07-29T11:24:14.864Z,89.66
2022-07-29T11:25:16.769Z,89.26
2022-07-29T11:26:15.304Z,88.86
2022-07-29T11:27:14.752Z,89.02
2022-07-29T11:28:16.708Z,87.82
2022-07-29T11:29:16.341Z,86.82
2022-07-29T11:30:15.545Z,88.42
2022-07-29T11:31:15.849Z,83.67
2022-07-29T11:32:18.450Z,82.37
2022-07-29T11:33:18.433Z,85.57
2022-07-29T11:34:17.718Z,85.63
2022-07-29T11:35:18.685Z,82.73
2022-07-29T11:36:17.449Z,84.29
2022-07-29T11:37:17.810Z,81.29
2022-07-29T11:38:17.934Z,85.35
2022-07-29T11:39:18.202Z,84.27
2022-07-29T11:40:18.578Z,80.24
2022-07-29T11:41:18.930Z,82.50
2022-07-29T11:42:18.957Z,82.75
2022-07-29T11:43:20.279Z,79.72
2022-07-29T11:44:19.518Z,80.02
2022-07-29T11:45:43.082Z,77.59
2022-07-29T11:46:24.970Z,76.76
2022-07-29T11:47:20.307Z,76.72
2022-07-29T11:48:28.500Z,75.43
2022-07-29T11:49:31.624Z,79.91
2022-07-29T11:50:22.202Z,78.85
2022-07-29T11:51:32.985Z,77.36
2022-07-29T11:52:22.760Z,78.59
2022-07-29T11:53:22.064Z,75.84
2022-07-29T11:54:27.288Z,77.73
2022-07-29T11:55:22.713Z,72.88
2022-07-29T11:56:25.636Z,74.58
2022-07-29T11:57:36.478Z,77.37
2022-07-29T11:58:25.236Z,79.66
2022-07-29T11:59:33.409Z,76.07
2022-07-29T12:00:25.938Z,78.47
2022-07-29T12:01:25.264Z,76.31
2022-07-29T12:02:37.389Z,74.51
2022-07-29T12:03:35.567Z,76.51
2022-07-29T12:04:26.317Z,75.41
2022-07-29T12:05:36.857Z,76.21
2022-07-29T12:06:26.863Z,78.67
2022-07-29T12:07:32.697Z,77.53
2022-07-29T12:08:27.375Z,78.65
2022-07-29T12:09:26.621Z,77.28
2022-07-29T12:10:30.729Z,73.37
2022-07-29T12:11:27.157Z,69.53
2022-07-29T12:12:27.477Z,68.86
2022-07-29T12:13:37.657Z,71.05
2022-07-29T12:14:28.994Z,70.45
2022-07-29T12:15:39.491Z,69.76
2022-07-29T12:16:29.940Z,68.56
2022-07-29T12:17:30.509Z,65.91
2022-07-29T12:18:29.092Z,66.57
2022-07-29T12:19:29.397Z,67.66
2022-07-29T12:20:29.741Z,67.36
2022-07-29T12:21:30.056Z,67.13
2022-07-29T12:22:30.350Z,70.22
2022-07-29T12:23:34.435Z,73.97
2022-07-29T12:24:30.919Z,69.03
2022-07-29T12:25:32.602Z,69.23
2022-07-29T12:26:32.200Z,69.49
2022-07-29T12:27:31.726Z,70.82
2022-07-29T12:28:32.068Z,71.42
2022-07-29T12:29:35.254Z,68.37
2022-07-29T12:30:32.727Z,70.45
2022-07-29T12:31:42.451Z,69.79
2022-07-29T12:32:34.337Z,71.65
2022-07-29T12:33:33.601Z,69.16
2022-07-29T12:34:33.928Z,68.43
2022-07-29T12:35:34.226Z,66.08
2022-07-29T12:36:34.514Z,70.75
2022-07-29T12:37:40.925Z,68.66
2022-07-29T12:38:36.104Z,70.29
2022-07-29T12:39:35.375Z,72.48
2022-07-29T12:40:35.679Z,69.53
2022-07-29T12:41:35.982Z,68.66
2022-07-29T12:42:36.295Z,73.05
2022-07-29T12:43:36.603Z,70.75
2022-07-29T12:44:36.948Z,70.59
2022-07-29T12:45:37.156Z,70.99
2022-07-29T12:46:37.492Z,73.11
2022-07-29T12:47:37.824Z,74.02
2022-07-29T12:48:38.247Z,73.61
2022-07-29T12:49:38.469Z,74.51
2022-07-29T12:50:38.811Z,74.71
2022-07-29T12:51:39.114Z,72.92
2022-07-29T12:52:39.452Z,74.28
2022-07-29T12:53:39.693Z,74.88
2022-07-29T12:54:39.889Z,74.18
2022-07-29T12:55:40.182Z,72.08
2022-07-29T12:56:43.140Z,73.82
2022-07-29T12:57:40.790Z,73.72
2022-07-29T12:58:41.073Z,74.21
2022-07-29T12:59:41.361Z,74.91
2022-07-29T13:00:41.675Z,76.11
2022-07-29T13:01:42.018Z,75.11
2022-07-29T13:02:42.438Z,73.22
2022-07-29T13:03:42.657Z,76.21
2022-07-29T13:04:43.949Z,74.51
2022-07-29T13:05:48.552Z,73.91
2022-07-29T13:06:46.010Z,73.72
2022-07-29T13:07:55.495Z,75.91
2022-07-29T13:08:45.102Z,76.21
2022-07-29T13:09:44.343Z,75.81
2022-07-29T13:10:44.643Z,77.11
2022-07-29T13:11:48.359Z,76.31
2022-07-29T13:12:45.344Z,76.37
2022-07-29T13:13:45.643Z,75.27
2022-07-29T13:14:45.951Z,74.02
2022-07-29T13:15:46.244Z,75.51
2022-07-29T13:16:46.581Z,76.31
2022-07-29T13:17:48.054Z,74.62
2022-07-29T13:18:47.155Z,75.95
2022-07-29T13:19:47.343Z,77.04
2022-07-29T13:20:47.626Z,77.64
2022-07-29T13:21:47.935Z,78.54
2022-07-29T13:22:48.284Z,77.51
2022-07-29T13:23:48.467Z,75.91
2022-07-29T13:24:48.780Z,73.91
2022-07-29T13:25:49.089Z,76.15
2022-07-29T13:26:49.392Z,77.51
2022-07-29T13:27:53.497Z,76.01
2022-07-29T13:28:49.974Z,76.21
2022-07-29T13:29:50.288Z,77.70
2022-07-29T13:30:50.657Z,73.72
2022-07-29T13:31:50.875Z,75.91
2022-07-29T13:32:51.214Z,76.11
2022-07-29T13:33:55.378Z,75.31
2022-07-29T13:34:51.856Z,75.35
2022-07-29T13:35:52.947Z,76.04
2022-07-29T13:36:52.449Z,77.94
2022-07-29T13:37:52.782Z,78.04
2022-07-29T13:38:53.085Z,74.85
2022-07-29T13:39:53.518Z,76.65
2022-07-29T13:40:54.464Z,78.34
2022-07-29T13:41:53.956Z,78.54
2022-07-29T13:42:54.231Z,75.15
2022-07-29T13:43:54.519Z,75.74
2022-07-29T13:44:54.822Z,75.15
2022-07-29T13:45:55.204Z,75.59
2022-07-29T13:46:55.438Z,77.88
2022-07-29T13:47:55.765Z,77.44
2022-07-29T13:48:56.137Z,77.74
2022-07-29T13:49:56.346Z,76.04
2022-07-29T13:50:56.656Z,76.41
2022-07-29T13:51:57.206Z,76.71
2022-07-29T13:52:57.195Z,75.01
2022-07-29T13:53:57.489Z,75.48
2022-07-29T13:54:57.807Z,76.07
2022-07-29T13:55:58.106Z,75.48
2022-07-29T13:56:58.405Z,75.57
2022-07-29T13:57:58.698Z,75.48
2022-07-29T13:58:59.032Z,75.11
2022-07-29T13:59:59.331Z,76.97
2022-07-29T14:00:59.730Z,77.57
2022-07-29T14:02:00.324Z,73.08
2022-07-29T14:03:00.207Z,73.58
2022-07-29T14:04:00.577Z,76.27
2022-07-29T14:05:04.968Z,75.57
2022-07-29T14:06:02.145Z,74.08
2022-07-29T14:07:03.519Z,74.58
2022-07-29T14:08:01.729Z,76.07
2022-07-29T14:09:02.068Z,74.54
2022-07-29T14:10:02.371Z,75.34
2022-07-29T14:11:02.678Z,75.24
2022-07-29T14:12:02.989Z,76.14
2022-07-29T14:13:03.312Z,75.60
2022-07-29T14:14:03.671Z,74.41
2022-07-29T14:15:03.863Z,75.10
2022-07-29T14:16:04.183Z,76.20
2022-07-29T14:17:04.569Z,73.25
2022-07-29T14:18:04.775Z,76.43
2022-07-29T14:19:05.109Z,76.14
2022-07-29T14:20:05.505Z,76.54
2022-07-29T14:21:05.691Z,75.97
2022-07-29T14:22:06.004Z,76.37
2022-07-29T14:23:06.272Z,77.07
2022-07-29T14:24:17.975Z,78.07
2022-07-29T14:25:14.214Z,76.77
2022-07-29T14:26:08.728Z,77.57
2022-07-29T14:27:07.603Z,77.57
2022-07-29T14:28:07.800Z,76.47
2022-07-29T14:29:07.989Z,77.40
2022-07-29T14:30:08.293Z,78.90
2022-07-29T14:31:08.591Z,79.20
2022-07-29T14:32:08.995Z,79.70
2022-07-29T14:33:09.133Z,80.00
2022-07-29T14:34:09.421Z,79.10
2022-07-29T14:35:09.730Z,79.70
2022-07-29T14:36:10.053Z,78.11
2022-07-29T14:37:16.057Z,78.60
2022-07-29T14:38:11.658Z,79.74
2022-07-29T14:39:10.914Z,80.44
2022-07-29T14:40:11.220Z,80.64
2022-07-29T14:41:11.551Z,80.64
2022-07-29T14:42:12.738Z,80.74
2022-07-29T14:43:12.193Z,81.04
2022-07-29T14:44:12.493Z,81.34
2022-07-29T14:45:12.901Z,81.84
2022-07-29T14:46:13.124Z,80.54
2022-07-29T14:47:13.323Z,81.24
2022-07-29T14:48:15.470Z,82.83
2022-07-29T14:49:13.932Z,82.93
2022-07-29T14:50:14.243Z,83.73
2022-07-29T14:51:14.542Z,84.07
2022-07-29T14:52:14.814Z,84.17
2022-07-29T14:53:15.119Z,84.07
2022-07-29T14:54:15.423Z,85.91
2022-07-29T14:55:16.579Z,87.01
2022-07-29T14:56:36.022Z,88.21
2022-07-29T14:57:17.374Z,89.45
2022-07-29T14:58:16.802Z,90.15
2022-07-29T14:59:16.864Z,85.89